sensor_id;sensor_type;location;lat;lon;timestamp;temperature;humidity
6379;DHT22;3222;48.858;10.128;2023-09-12T00:01:04;20.50;99.90
6379;DHT22;3222;48.858;10.128;2023-09-12T00:03:34;20.50;99.90
6379;DHT22;3222;48.858;10.128;2023-09-12T00:06:01;20.60;99.90
6379;DHT22;3222;48.858;10.128;2023-09-12T00:08:27;20.60;99.90
6379;DHT22;3222;48.858;10.128;2023-09-12T00:11:04;20.60;99.90
6379;DHT22;3222;48.858;10.128;2023-09-12T00:13:30;20.50;99.90
6379;DHT22;3222;48.858;10.128;2023-09-12T00:15:56;20.60;99.90
6379;DHT22;3222;48.858;10.128;2023-09-12T00:18:22;20.50;99.90
6379;DHT22;3222;48.858;10.128;2023-09-12T00:20:49;20.50;99.90
6379;DHT22;3222;48.858;10.128;2023-09-12T00:23:14;20.50;99.90
6379;DHT22;3222;48.858;10.128;2023-09-12T00:25:40;20.40;99.90
6379;DHT22;3222;48.858;10.128;2023-09-12T00:28:06;20.40;99.90
6379;DHT22;3222;48.858;10.128;2023-09-12T00:30:31;20.40;99.90
6379;DHT22;3222;48.858;10.128;2023-09-12T00:32:57;20.40;99.90
6379;DHT22;3222;48.858;10.128;2023-09-12T00:35:23;20.40;99.90
6379;DHT22;3222;48.858;10.128;2023-09-12T00:37:50;20.40;99.90
6379;DHT22;3222;48.858;10.128;2023-09-12T00:40:16;20.40;99.90
6379;DHT22;3222;48.858;10.128;2023-09-12T00:42:41;20.30;99.90
6379;DHT22;3222;48.858;10.128;2023-09-12T00:45:07;20.40;99.90
6379;DHT22;3222;48.858;10.128;2023-09-12T00:47:33;20.30;99.90
6379;DHT22;3222;48.858;10.128;2023-09-12T00:49:59;20.40;99.90
6379;DHT22;3222;48.858;10.128;2023-09-12T00:52:26;20.50;99.90
6379;DHT22;3222;48.858;10.128;2023-09-12T00:54:53;20.50;99.90
6379;DHT22;3222;48.858;10.128;2023-09-12T00:57:21;20.50;99.90
6379;DHT22;3222;48.858;10.128;2023-09-12T00:59:47;20.50;99.90
6379;DHT22;3222;48.858;10.128;2023-09-12T01:02:14;20.40;99.90
6379;DHT22;3222;48.858;10.128;2023-09-12T01:04:40;20.40;99.90
6379;DHT22;3222;48.858;10.128;2023-09-12T01:07:08;20.30;99.90
6379;DHT22;3222;48.858;10.128;2023-09-12T01:09:33;20.30;99.90
6379;DHT22;3222;48.858;10.128;2023-09-12T01:12:00;20.30;99.90
6379;DHT22;3222;48.858;10.128;2023-09-12T01:14:28;20.40;99.90
6379;DHT22;3222;48.858;10.128;2023-09-12T01:16:55;20.40;99.90
6379;DHT22;3222;48.858;10.128;2023-09-12T01:19:20;20.50;99.90
6379;DHT22;3222;48.858;10.128;2023-09-12T01:25:13;20.50;99.90
6379;DHT22;3222;48.858;10.128;2023-09-12T01:27:50;20.50;99.90
6379;DHT22;3222;48.858;10.128;2023-09-12T01:30:22;20.50;99.90
6379;DHT22;3222;48.858;10.128;2023-09-12T01:32:50;20.50;99.90
6379;DHT22;3222;48.858;10.128;2023-09-12T01:35:17;20.60;99.90
6379;DHT22;3222;48.858;10.128;2023-09-12T01:37:42;20.50;99.90
6379;DHT22;3222;48.858;10.128;2023-09-12T01:40:09;20.60;99.90
6379;DHT22;3222;48.858;10.128;2023-09-12T01:42:37;20.50;99.90
6379;DHT22;3222;48.858;10.128;2023-09-12T01:45:08;20.60;99.90
6379;DHT22;3222;48.858;10.128;2023-09-12T01:47:35;20.50;99.90
6379;DHT22;3222;48.858;10.128;2023-09-12T01:50:01;20.50;99.90
6379;DHT22;3222;48.858;10.128;2023-09-12T01:52:27;20.50;99.90
6379;DHT22;3222;48.858;10.128;2023-09-12T01:54:54;20.60;99.90
6379;DHT22;3222;48.858;10.128;2023-09-12T01:57:20;20.50;99.90
6379;DHT22;3222;48.858;10.128;2023-09-12T01:59:48;20.40;99.90
6379;DHT22;3222;48.858;10.128;2023-09-12T02:02:15;20.40;99.90
6379;DHT22;3222;48.858;10.128;2023-09-12T02:04:42;20.40;99.90
6379;DHT22;3222;48.858;10.128;2023-09-12T02:07:12;20.40;99.90
6379;DHT22;3222;48.858;10.128;2023-09-12T02:09:38;20.30;99.90
6379;DHT22;3222;48.858;10.128;2023-09-12T02:12:04;20.40;99.90
6379;DHT22;3222;48.858;10.128;2023-09-12T02:14:29;20.40;99.90
6379;DHT22;3222;48.858;10.128;2023-09-12T02:16:55;20.30;99.90
6379;DHT22;3222;48.858;10.128;2023-09-12T02:19:20;20.30;99.90
6379;DHT22;3222;48.858;10.128;2023-09-12T02:21:46;20.30;99.90
6379;DHT22;3222;48.858;10.128;2023-09-12T02:24:12;20.30;99.90
6379;DHT22;3222;48.858;10.128;2023-09-12T02:26:37;20.30;99.90
6379;DHT22;3222;48.858;10.128;2023-09-12T02:29:04;20.30;99.90
6379;DHT22;3222;48.858;10.128;2023-09-12T02:31:32;20.20;99.90
6379;DHT22;3222;48.858;10.128;2023-09-12T02:33:58;20.20;99.90
6379;DHT22;3222;48.858;10.128;2023-09-12T02:36:24;20.20;99.90
6379;DHT22;3222;48.858;10.128;2023-09-12T02:38:50;20.10;99.90
6379;DHT22;3222;48.858;10.128;2023-09-12T02:41:15;20.20;99.90
6379;DHT22;3222;48.858;10.128;2023-09-12T02:43:41;20.20;99.90
6379;DHT22;3222;48.858;10.128;2023-09-12T02:46:07;20.20;99.90
6379;DHT22;3222;48.858;10.128;2023-09-12T02:48:32;20.20;99.90
6379;DHT22;3222;48.858;10.128;2023-09-12T02:50:58;20.20;99.90
6379;DHT22;3222;48.858;10.128;2023-09-12T02:53:24;20.10;99.90
6379;DHT22;3222;48.858;10.128;2023-09-12T02:55:51;20.10;99.90
6379;DHT22;3222;48.858;10.128;2023-09-12T02:58:17;20.10;99.90
6379;DHT22;3222;48.858;10.128;2023-09-12T03:00:42;20.10;99.90
6379;DHT22;3222;48.858;10.128;2023-09-12T03:03:08;20.10;99.90
6379;DHT22;3222;48.858;10.128;2023-09-12T03:05:35;20.10;99.90
6379;DHT22;3222;48.858;10.128;2023-09-12T03:08:01;20.10;99.90
6379;DHT22;3222;48.858;10.128;2023-09-12T03:10:28;20.10;99.90
6379;DHT22;3222;48.858;10.128;2023-09-12T03:12:53;20.10;99.90
6379;DHT22;3222;48.858;10.128;2023-09-12T03:15:19;20.00;99.90
6379;DHT22;3222;48.858;10.128;2023-09-12T03:17:44;20.00;99.90
6379;DHT22;3222;48.858;10.128;2023-09-12T03:20:11;20.00;99.90
6379;DHT22;3222;48.858;10.128;2023-09-12T03:22:37;20.00;99.90
6379;DHT22;3222;48.858;10.128;2023-09-12T03:25:04;20.00;99.90
6379;DHT22;3222;48.858;10.128;2023-09-12T03:27:30;20.00;99.90
6379;DHT22;3222;48.858;10.128;2023-09-12T03:29:55;20.00;99.90
6379;DHT22;3222;48.858;10.128;2023-09-12T03:32:21;20.00;99.90
6379;DHT22;3222;48.858;10.128;2023-09-12T03:34:47;20.00;99.90
6379;DHT22;3222;48.858;10.128;2023-09-12T03:37:12;20.00;99.90
6379;DHT22;3222;48.858;10.128;2023-09-12T03:39:38;20.00;99.90
6379;DHT22;3222;48.858;10.128;2023-09-12T03:42:04;20.00;99.90
6379;DHT22;3222;48.858;10.128;2023-09-12T03:44:30;20.00;99.90
6379;DHT22;3222;48.858;10.128;2023-09-12T03:46:55;19.90;99.90
6379;DHT22;3222;48.858;10.128;2023-09-12T03:49:22;19.90;99.90
6379;DHT22;3222;48.858;10.128;2023-09-12T03:51:48;19.90;99.90
6379;DHT22;3222;48.858;10.128;2023-09-12T03:54:13;19.90;99.90
6379;DHT22;3222;48.858;10.128;2023-09-12T03:56:39;19.80;99.90
6379;DHT22;3222;48.858;10.128;2023-09-12T03:59:05;19.90;99.90
6379;DHT22;3222;48.858;10.128;2023-09-12T04:01:30;19.90;99.90
6379;DHT22;3222;48.858;10.128;2023-09-12T04:03:56;19.90;99.90
6379;DHT22;3222;48.858;10.128;2023-09-12T04:06:22;19.90;99.90
6379;DHT22;3222;48.858;10.128;2023-09-12T04:08:47;19.90;99.90
6379;DHT22;3222;48.858;10.128;2023-09-12T04:11:13;19.90;99.90
6379;DHT22;3222;48.858;10.128;2023-09-12T04:13:38;19.90;99.90
6379;DHT22;3222;48.858;10.128;2023-09-12T04:16:04;19.90;99.90
6379;DHT22;3222;48.858;10.128;2023-09-12T04:18:30;19.90;99.90
6379;DHT22;3222;48.858;10.128;2023-09-12T04:20:55;19.90;99.90
6379;DHT22;3222;48.858;10.128;2023-09-12T04:23:24;19.90;99.90
6379;DHT22;3222;48.858;10.128;2023-09-12T04:25:50;19.80;99.90
6379;DHT22;3222;48.858;10.128;2023-09-12T04:28:15;19.80;99.90
6379;DHT22;3222;48.858;10.128;2023-09-12T04:30:41;19.80;99.90
6379;DHT22;3222;48.858;10.128;2023-09-12T04:33:07;19.80;99.90
6379;DHT22;3222;48.858;10.128;2023-09-12T04:35:33;19.90;99.90
6379;DHT22;3222;48.858;10.128;2023-09-12T04:37:59;19.90;99.90
6379;DHT22;3222;48.858;10.128;2023-09-12T04:40:25;19.80;99.90
6379;DHT22;3222;48.858;10.128;2023-09-12T04:42:50;19.80;99.90
6379;DHT22;3222;48.858;10.128;2023-09-12T04:45:16;19.90;99.90
6379;DHT22;3222;48.858;10.128;2023-09-12T04:47:42;19.90;99.90
6379;DHT22;3222;48.858;10.128;2023-09-12T04:50:08;19.90;99.90
6379;DHT22;3222;48.858;10.128;2023-09-12T04:52:33;19.90;99.90
6379;DHT22;3222;48.858;10.128;2023-09-12T04:54:59;19.90;99.90
6379;DHT22;3222;48.858;10.128;2023-09-12T04:57:25;19.80;99.90
6379;DHT22;3222;48.858;10.128;2023-09-12T04:59:51;19.90;99.90
6379;DHT22;3222;48.858;10.128;2023-09-12T05:02:18;19.90;99.90
6379;DHT22;3222;48.858;10.128;2023-09-12T05:04:43;19.90;99.90
6379;DHT22;3222;48.858;10.128;2023-09-12T05:07:09;19.90;99.90
6379;DHT22;3222;48.858;10.128;2023-09-12T05:09:35;19.90;99.90
6379;DHT22;3222;48.858;10.128;2023-09-12T05:12:01;19.90;99.90
6379;DHT22;3222;48.858;10.128;2023-09-12T05:14:26;19.90;99.90
6379;DHT22;3222;48.858;10.128;2023-09-12T05:16:52;19.80;99.90
6379;DHT22;3222;48.858;10.128;2023-09-12T05:19:18;19.80;99.90
6379;DHT22;3222;48.858;10.128;2023-09-12T05:21:44;19.90;99.90
6379;DHT22;3222;48.858;10.128;2023-09-12T05:24:10;19.90;99.90
6379;DHT22;3222;48.858;10.128;2023-09-12T05:26:36;19.90;99.90
6379;DHT22;3222;48.858;10.128;2023-09-12T05:29:02;19.90;99.90
6379;DHT22;3222;48.858;10.128;2023-09-12T05:31:27;19.90;99.90
6379;DHT22;3222;48.858;10.128;2023-09-12T05:33:53;19.90;99.90
6379;DHT22;3222;48.858;10.128;2023-09-12T05:36:19;19.90;99.90
6379;DHT22;3222;48.858;10.128;2023-09-12T05:38:45;19.90;99.90
6379;DHT22;3222;48.858;10.128;2023-09-12T05:41:10;19.90;99.90
6379;DHT22;3222;48.858;10.128;2023-09-12T05:43:36;19.90;99.90
6379;DHT22;3222;48.858;10.128;2023-09-12T05:46:02;19.90;99.90
6379;DHT22;3222;48.858;10.128;2023-09-12T05:48:28;19.90;99.90
6379;DHT22;3222;48.858;10.128;2023-09-12T05:50:54;20.00;99.90
6379;DHT22;3222;48.858;10.128;2023-09-12T05:53:19;20.00;99.90
6379;DHT22;3222;48.858;10.128;2023-09-12T05:55:45;20.00;99.90
6379;DHT22;3222;48.858;10.128;2023-09-12T05:58:10;20.00;99.90
6379;DHT22;3222;48.858;10.128;2023-09-12T06:00:36;19.90;99.90
6379;DHT22;3222;48.858;10.128;2023-09-12T06:03:02;19.90;99.90
6379;DHT22;3222;48.858;10.128;2023-09-12T06:05:28;19.90;99.90
6379;DHT22;3222;48.858;10.128;2023-09-12T06:07:53;19.90;99.90
6379;DHT22;3222;48.858;10.128;2023-09-12T06:10:19;19.90;99.90
6379;DHT22;3222;48.858;10.128;2023-09-12T06:12:44;20.00;99.90
6379;DHT22;3222;48.858;10.128;2023-09-12T06:15:10;20.00;99.90
6379;DHT22;3222;48.858;10.128;2023-09-12T06:17:36;20.00;99.90
6379;DHT22;3222;48.858;10.128;2023-09-12T06:20:02;20.00;99.90
6379;DHT22;3222;48.858;10.128;2023-09-12T06:22:31;20.00;99.90
6379;DHT22;3222;48.858;10.128;2023-09-12T06:24:57;20.10;99.90
6379;DHT22;3222;48.858;10.128;2023-09-12T06:27:22;20.20;99.90
6379;DHT22;3222;48.858;10.128;2023-09-12T06:29:48;20.20;99.90
6379;DHT22;3222;48.858;10.128;2023-09-12T06:32:16;20.20;99.90
6379;DHT22;3222;48.858;10.128;2023-09-12T06:34:42;20.30;99.90
6379;DHT22;3222;48.858;10.128;2023-09-12T06:37:08;20.30;99.90
6379;DHT22;3222;48.858;10.128;2023-09-12T06:39:34;20.30;99.90
6379;DHT22;3222;48.858;10.128;2023-09-12T06:42:00;20.40;99.90
6379;DHT22;3222;48.858;10.128;2023-09-12T06:44:25;20.40;99.90
6379;DHT22;3222;48.858;10.128;2023-09-12T06:46:51;20.50;99.90
6379;DHT22;3222;48.858;10.128;2023-09-12T06:49:16;20.50;99.90
6379;DHT22;3222;48.858;10.128;2023-09-12T06:51:42;20.60;99.90
6379;DHT22;3222;48.858;10.128;2023-09-12T06:54:08;20.60;99.90
6379;DHT22;3222;48.858;10.128;2023-09-12T06:56:33;20.60;99.90
6379;DHT22;3222;48.858;10.128;2023-09-12T06:59:06;20.70;99.90
6379;DHT22;3222;48.858;10.128;2023-09-12T07:01:32;20.80;99.90
6379;DHT22;3222;48.858;10.128;2023-09-12T07:03:57;20.80;99.90
6379;DHT22;3222;48.858;10.128;2023-09-12T07:06:23;20.80;99.90
6379;DHT22;3222;48.858;10.128;2023-09-12T07:08:49;20.80;99.90
6379;DHT22;3222;48.858;10.128;2023-09-12T07:11:15;20.90;99.90
6379;DHT22;3222;48.858;10.128;2023-09-12T07:13:41;21.00;99.90
6379;DHT22;3222;48.858;10.128;2023-09-12T07:16:06;21.20;99.90
6379;DHT22;3222;48.858;10.128;2023-09-12T07:18:32;21.30;99.90
6379;DHT22;3222;48.858;10.128;2023-09-12T07:21:03;21.20;99.90
6379;DHT22;3222;48.858;10.128;2023-09-12T07:23:29;21.30;99.90
6379;DHT22;3222;48.858;10.128;2023-09-12T07:25:55;21.40;99.90
6379;DHT22;3222;48.858;10.128;2023-09-12T07:28:23;21.50;99.90
6379;DHT22;3222;48.858;10.128;2023-09-12T07:30:49;21.40;99.90
6379;DHT22;3222;48.858;10.128;2023-09-12T07:33:15;21.40;99.90
6379;DHT22;3222;48.858;10.128;2023-09-12T07:35:41;21.40;99.90
6379;DHT22;3222;48.858;10.128;2023-09-12T07:38:06;21.40;99.90
6379;DHT22;3222;48.858;10.128;2023-09-12T07:40:32;21.50;99.90
6379;DHT22;3222;48.858;10.128;2023-09-12T07:42:57;21.50;99.90
6379;DHT22;3222;48.858;10.128;2023-09-12T07:45:23;21.60;99.90
6379;DHT22;3222;48.858;10.128;2023-09-12T07:47:49;21.60;99.90
6379;DHT22;3222;48.858;10.128;2023-09-12T07:50:14;21.70;99.90
6379;DHT22;3222;48.858;10.128;2023-09-12T07:52:40;21.80;99.90
6379;DHT22;3222;48.858;10.128;2023-09-12T07:55:07;21.80;99.90
6379;DHT22;3222;48.858;10.128;2023-09-12T07:57:33;21.80;99.90
6379;DHT22;3222;48.858;10.128;2023-09-12T08:00:00;21.90;99.90
6379;DHT22;3222;48.858;10.128;2023-09-12T08:02:26;21.90;99.90
6379;DHT22;3222;48.858;10.128;2023-09-12T08:04:51;21.90;99.90
6379;DHT22;3222;48.858;10.128;2023-09-12T08:07:17;22.10;99.90
6379;DHT22;3222;48.858;10.128;2023-09-12T08:09:54;22.30;99.90
6379;DHT22;3222;48.858;10.128;2023-09-12T08:12:21;22.30;99.90
6379;DHT22;3222;48.858;10.128;2023-09-12T08:14:47;22.50;99.90
6379;DHT22;3222;48.858;10.128;2023-09-12T08:17:14;22.60;99.90
6379;DHT22;3222;48.858;10.128;2023-09-12T08:19:40;22.60;99.90
6379;DHT22;3222;48.858;10.128;2023-09-12T08:22:07;22.70;99.90
6379;DHT22;3222;48.858;10.128;2023-09-12T08:24:34;22.80;99.90
6379;DHT22;3222;48.858;10.128;2023-09-12T08:27:00;22.90;99.90
6379;DHT22;3222;48.858;10.128;2023-09-12T08:29:27;23.00;99.90
6379;DHT22;3222;48.858;10.128;2023-09-12T08:31:53;23.00;99.90
6379;DHT22;3222;48.858;10.128;2023-09-12T08:34:20;23.00;99.90
6379;DHT22;3222;48.858;10.128;2023-09-12T08:36:45;23.10;99.90
6379;DHT22;3222;48.858;10.128;2023-09-12T08:39:16;23.10;99.90
6379;DHT22;3222;48.858;10.128;2023-09-12T08:41:44;23.10;99.90
6379;DHT22;3222;48.858;10.128;2023-09-12T08:44:13;23.20;99.90
6379;DHT22;3222;48.858;10.128;2023-09-12T08:46:42;23.30;99.90
6379;DHT22;3222;48.858;10.128;2023-09-12T08:49:10;23.30;99.90
6379;DHT22;3222;48.858;10.128;2023-09-12T08:51:39;23.30;99.90
6379;DHT22;3222;48.858;10.128;2023-09-12T08:54:06;23.30;99.90
6379;DHT22;3222;48.858;10.128;2023-09-12T08:56:32;23.40;99.90
6379;DHT22;3222;48.858;10.128;2023-09-12T08:59:00;23.40;99.90
6379;DHT22;3222;48.858;10.128;2023-09-12T09:01:30;23.40;99.90
6379;DHT22;3222;48.858;10.128;2023-09-12T09:03:56;23.50;99.90
6379;DHT22;3222;48.858;10.128;2023-09-12T09:06:22;23.60;99.90
6379;DHT22;3222;48.858;10.128;2023-09-12T09:08:49;23.60;99.90
6379;DHT22;3222;48.858;10.128;2023-09-12T09:11:14;23.70;99.90
6379;DHT22;3222;48.858;10.128;2023-09-12T09:13:40;23.90;99.90
6379;DHT22;3222;48.858;10.128;2023-09-12T09:16:19;23.90;99.90
6379;DHT22;3222;48.858;10.128;2023-09-12T09:18:54;23.90;99.90
6379;DHT22;3222;48.858;10.128;2023-09-12T09:21:22;24.00;99.90
6379;DHT22;3222;48.858;10.128;2023-09-12T09:23:52;24.10;99.90
6379;DHT22;3222;48.858;10.128;2023-09-12T09:26:18;24.10;99.90
6379;DHT22;3222;48.858;10.128;2023-09-12T09:28:44;24.20;99.90
6379;DHT22;3222;48.858;10.128;2023-09-12T09:31:13;24.10;99.90
6379;DHT22;3222;48.858;10.128;2023-09-12T09:33:40;24.10;99.90
6379;DHT22;3222;48.858;10.128;2023-09-12T09:36:07;24.20;99.90
6379;DHT22;3222;48.858;10.128;2023-09-12T09:38:34;24.40;99.90
6379;DHT22;3222;48.858;10.128;2023-09-12T09:41:03;24.50;99.90
6379;DHT22;3222;48.858;10.128;2023-09-12T09:43:30;24.50;99.90
6379;DHT22;3222;48.858;10.128;2023-09-12T09:45:57;24.50;99.90
6379;DHT22;3222;48.858;10.128;2023-09-12T09:48:24;24.50;99.90
6379;DHT22;3222;48.858;10.128;2023-09-12T09:50:53;24.60;99.90
6379;DHT22;3222;48.858;10.128;2023-09-12T09:53:31;24.50;99.90
6379;DHT22;3222;48.858;10.128;2023-09-12T09:56:13;24.50;99.90
6379;DHT22;3222;48.858;10.128;2023-09-12T09:58:51;24.50;99.90
6379;DHT22;3222;48.858;10.128;2023-09-12T10:01:28;24.60;99.90
6379;DHT22;3222;48.858;10.128;2023-09-12T10:03:59;24.60;99.90
6379;DHT22;3222;48.858;10.128;2023-09-12T10:06:28;24.70;99.90
6379;DHT22;3222;48.858;10.128;2023-09-12T10:08:58;24.80;99.90
6379;DHT22;3222;48.858;10.128;2023-09-12T10:11:28;24.80;99.90
6379;DHT22;3222;48.858;10.128;2023-09-12T10:13:59;24.80;99.90
6379;DHT22;3222;48.858;10.128;2023-09-12T10:16:30;24.80;99.90
6379;DHT22;3222;48.858;10.128;2023-09-12T10:19:12;24.90;99.90
6379;DHT22;3222;48.858;10.128;2023-09-12T10:21:52;24.90;99.90
6379;DHT22;3222;48.858;10.128;2023-09-12T10:24:19;24.90;99.90
6379;DHT22;3222;48.858;10.128;2023-09-12T10:26:49;24.90;99.90
6379;DHT22;3222;48.858;10.128;2023-09-12T10:29:15;25.00;99.90
6379;DHT22;3222;48.858;10.128;2023-09-12T10:31:41;25.00;99.90
6379;DHT22;3222;48.858;10.128;2023-09-12T10:34:08;25.10;99.90
6379;DHT22;3222;48.858;10.128;2023-09-12T10:36:38;25.20;99.90
6379;DHT22;3222;48.858;10.128;2023-09-12T10:39:06;25.20;99.90
6379;DHT22;3222;48.858;10.128;2023-09-12T10:41:33;25.20;99.90
6379;DHT22;3222;48.858;10.128;2023-09-12T10:44:01;25.20;99.90
6379;DHT22;3222;48.858;10.128;2023-09-12T10:46:28;25.20;99.90
6379;DHT22;3222;48.858;10.128;2023-09-12T10:48:54;25.20;99.90
6379;DHT22;3222;48.858;10.128;2023-09-12T10:51:20;25.20;99.90
6379;DHT22;3222;48.858;10.128;2023-09-12T10:53:49;25.30;99.90
6379;DHT22;3222;48.858;10.128;2023-09-12T10:56:19;25.30;99.90
6379;DHT22;3222;48.858;10.128;2023-09-12T11:01:30;25.30;99.90
6379;DHT22;3222;48.858;10.128;2023-09-12T11:03:56;25.20;99.90
6379;DHT22;3222;48.858;10.128;2023-09-12T11:06:30;25.30;99.90
6379;DHT22;3222;48.858;10.128;2023-09-12T11:09:22;25.30;99.90
6379;DHT22;3222;48.858;10.128;2023-09-12T11:11:54;25.50;99.90
6379;DHT22;3222;48.858;10.128;2023-09-12T11:14:20;25.50;99.90
6379;DHT22;3222;48.858;10.128;2023-09-12T11:19:47;25.50;99.90
6379;DHT22;3222;48.858;10.128;2023-09-12T11:22:39;25.50;99.90
6379;DHT22;3222;48.858;10.128;2023-09-12T11:25:26;25.50;99.90
6379;DHT22;3222;48.858;10.128;2023-09-12T11:30:18;25.60;99.90
6379;DHT22;3222;48.858;10.128;2023-09-12T11:32:48;25.80;99.90
6379;DHT22;3222;48.858;10.128;2023-09-12T11:35:14;25.90;99.90
6379;DHT22;3222;48.858;10.128;2023-09-12T11:37:48;25.80;99.90
6379;DHT22;3222;48.858;10.128;2023-09-12T11:40:17;25.80;99.90
6379;DHT22;3222;48.858;10.128;2023-09-12T11:42:43;25.80;99.90
6379;DHT22;3222;48.858;10.128;2023-09-12T11:45:12;25.80;99.90
6379;DHT22;3222;48.858;10.128;2023-09-12T11:47:41;25.90;99.90
6379;DHT22;3222;48.858;10.128;2023-09-12T11:50:08;26.00;99.90
6379;DHT22;3222;48.858;10.128;2023-09-12T11:52:36;26.10;99.90
6379;DHT22;3222;48.858;10.128;2023-09-12T11:55:05;26.10;99.90
6379;DHT22;3222;48.858;10.128;2023-09-12T11:57:31;26.00;99.90
6379;DHT22;3222;48.858;10.128;2023-09-12T11:59:57;26.00;99.90
6379;DHT22;3222;48.858;10.128;2023-09-12T12:02:23;26.00;99.90
6379;DHT22;3222;48.858;10.128;2023-09-12T12:04:49;26.00;99.90
6379;DHT22;3222;48.858;10.128;2023-09-12T12:07:16;26.10;99.90
6379;DHT22;3222;48.858;10.128;2023-09-12T12:09:42;26.20;99.90
6379;DHT22;3222;48.858;10.128;2023-09-12T12:12:14;26.10;99.90
6379;DHT22;3222;48.858;10.128;2023-09-12T12:14:41;26.10;99.90
6379;DHT22;3222;48.858;10.128;2023-09-12T12:17:08;26.10;99.90
6379;DHT22;3222;48.858;10.128;2023-09-12T12:19:34;26.10;99.90
6379;DHT22;3222;48.858;10.128;2023-09-12T12:22:03;26.20;99.90
6379;DHT22;3222;48.858;10.128;2023-09-12T12:24:40;26.20;99.90
6379;DHT22;3222;48.858;10.128;2023-09-12T12:27:06;26.30;99.90
6379;DHT22;3222;48.858;10.128;2023-09-12T12:29:34;26.30;99.90
6379;DHT22;3222;48.858;10.128;2023-09-12T12:32:01;26.30;99.90
6379;DHT22;3222;48.858;10.128;2023-09-12T12:34:27;26.30;99.90
6379;DHT22;3222;48.858;10.128;2023-09-12T12:36:54;26.30;99.90
6379;DHT22;3222;48.858;10.128;2023-09-12T12:39:21;26.20;99.90
6379;DHT22;3222;48.858;10.128;2023-09-12T12:41:47;26.30;99.90
6379;DHT22;3222;48.858;10.128;2023-09-12T12:44:13;26.40;99.90
6379;DHT22;3222;48.858;10.128;2023-09-12T12:47:08;26.40;99.90
6379;DHT22;3222;48.858;10.128;2023-09-12T12:49:38;26.40;99.90
6379;DHT22;3222;48.858;10.128;2023-09-12T12:52:05;26.20;99.90
6379;DHT22;3222;48.858;10.128;2023-09-12T12:54:34;26.30;99.90
6379;DHT22;3222;48.858;10.128;2023-09-12T12:57:00;26.30;99.90
6379;DHT22;3222;48.858;10.128;2023-09-12T12:59:26;26.40;99.90
6379;DHT22;3222;48.858;10.128;2023-09-12T13:01:52;26.40;99.90
6379;DHT22;3222;48.858;10.128;2023-09-12T13:04:17;26.60;99.90
6379;DHT22;3222;48.858;10.128;2023-09-12T13:06:43;26.70;99.90
6379;DHT22;3222;48.858;10.128;2023-09-12T13:09:09;26.60;99.90
6379;DHT22;3222;48.858;10.128;2023-09-12T13:11:37;26.70;99.90
6379;DHT22;3222;48.858;10.128;2023-09-12T13:14:04;26.80;99.90
6379;DHT22;3222;48.858;10.128;2023-09-12T13:16:34;26.90;99.90
6379;DHT22;3222;48.858;10.128;2023-09-12T13:19:00;26.90;99.90
6379;DHT22;3222;48.858;10.128;2023-09-12T13:21:26;26.90;99.90
6379;DHT22;3222;48.858;10.128;2023-09-12T13:23:51;26.90;99.90
6379;DHT22;3222;48.858;10.128;2023-09-12T13:26:17;26.90;99.90
6379;DHT22;3222;48.858;10.128;2023-09-12T13:28:43;26.90;99.90
6379;DHT22;3222;48.858;10.128;2023-09-12T13:31:08;27.00;99.90
6379;DHT22;3222;48.858;10.128;2023-09-12T13:33:34;27.10;99.90
6379;DHT22;3222;48.858;10.128;2023-09-12T13:35:59;27.30;99.90
6379;DHT22;3222;48.858;10.128;2023-09-12T13:38:25;27.50;99.90
6379;DHT22;3222;48.858;10.128;2023-09-12T13:40:51;27.50;99.90
6379;DHT22;3222;48.858;10.128;2023-09-12T13:43:16;27.50;99.90
6379;DHT22;3222;48.858;10.128;2023-09-12T13:45:42;27.50;99.90
6379;DHT22;3222;48.858;10.128;2023-09-12T13:48:08;27.50;99.90
6379;DHT22;3222;48.858;10.128;2023-09-12T13:50:34;27.50;99.90
6379;DHT22;3222;48.858;10.128;2023-09-12T13:53:01;27.50;99.90
6379;DHT22;3222;48.858;10.128;2023-09-12T13:55:32;27.50;99.90
6379;DHT22;3222;48.858;10.128;2023-09-12T13:57:59;27.40;99.90
6379;DHT22;3222;48.858;10.128;2023-09-12T14:00:24;27.40;99.90
6379;DHT22;3222;48.858;10.128;2023-09-12T14:02:50;27.50;99.90
6379;DHT22;3222;48.858;10.128;2023-09-12T14:05:16;27.50;99.90
6379;DHT22;3222;48.858;10.128;2023-09-12T14:07:41;27.60;99.90
6379;DHT22;3222;48.858;10.128;2023-09-12T14:10:07;27.60;99.90
6379;DHT22;3222;48.858;10.128;2023-09-12T14:12:33;27.60;99.90
6379;DHT22;3222;48.858;10.128;2023-09-12T14:14:59;27.60;99.90
6379;DHT22;3222;48.858;10.128;2023-09-12T14:17:25;27.60;99.90
6379;DHT22;3222;48.858;10.128;2023-09-12T14:19:51;27.60;99.90
6379;DHT22;3222;48.858;10.128;2023-09-12T14:22:16;27.60;99.90
6379;DHT22;3222;48.858;10.128;2023-09-12T14:24:42;27.60;99.90
6379;DHT22;3222;48.858;10.128;2023-09-12T14:27:07;27.60;99.90
6379;DHT22;3222;48.858;10.128;2023-09-12T14:29:33;27.50;99.90
6379;DHT22;3222;48.858;10.128;2023-09-12T14:31:59;27.30;99.90
6379;DHT22;3222;48.858;10.128;2023-09-12T14:34:27;27.30;99.90
6379;DHT22;3222;48.858;10.128;2023-09-12T14:36:54;27.20;99.90
6379;DHT22;3222;48.858;10.128;2023-09-12T14:39:21;27.10;99.90
6379;DHT22;3222;48.858;10.128;2023-09-12T14:41:47;27.10;99.90
6379;DHT22;3222;48.858;10.128;2023-09-12T14:46:45;27.60;99.90
6379;DHT22;3222;48.858;10.128;2023-09-12T14:49:11;27.70;99.90
6379;DHT22;3222;48.858;10.128;2023-09-12T14:51:37;27.70;99.90
6379;DHT22;3222;48.858;10.128;2023-09-12T14:54:03;27.60;99.90
6379;DHT22;3222;48.858;10.128;2023-09-12T14:56:30;27.60;99.90
6379;DHT22;3222;48.858;10.128;2023-09-12T14:58:55;27.50;99.90
6379;DHT22;3222;48.858;10.128;2023-09-12T15:01:21;27.40;99.90
6379;DHT22;3222;48.858;10.128;2023-09-12T15:03:47;27.30;99.90
6379;DHT22;3222;48.858;10.128;2023-09-12T15:06:12;27.30;99.90
6379;DHT22;3222;48.858;10.128;2023-09-12T15:08:38;27.10;99.90
6379;DHT22;3222;48.858;10.128;2023-09-12T15:11:04;27.10;99.90
6379;DHT22;3222;48.858;10.128;2023-09-12T15:13:30;26.90;99.90
6379;DHT22;3222;48.858;10.128;2023-09-12T15:15:56;26.90;99.90
6379;DHT22;3222;48.858;10.128;2023-09-12T15:18:22;26.80;99.90
6379;DHT22;3222;48.858;10.128;2023-09-12T15:20:47;26.70;99.90
6379;DHT22;3222;48.858;10.128;2023-09-12T15:23:13;26.60;99.90
6379;DHT22;3222;48.858;10.128;2023-09-12T15:25:39;26.50;99.90
6379;DHT22;3222;48.858;10.128;2023-09-12T15:28:04;26.50;99.90
6379;DHT22;3222;48.858;10.128;2023-09-12T15:30:31;26.40;99.90
6379;DHT22;3222;48.858;10.128;2023-09-12T15:32:56;26.30;99.90
6379;DHT22;3222;48.858;10.128;2023-09-12T15:35:22;26.30;99.90
6379;DHT22;3222;48.858;10.128;2023-09-12T15:37:47;26.20;99.90
6379;DHT22;3222;48.858;10.128;2023-09-12T15:40:14;26.20;99.90
6379;DHT22;3222;48.858;10.128;2023-09-12T15:42:39;26.10;99.90
6379;DHT22;3222;48.858;10.128;2023-09-12T15:45:05;26.10;99.90
6379;DHT22;3222;48.858;10.128;2023-09-12T15:47:33;26.00;99.90
6379;DHT22;3222;48.858;10.128;2023-09-12T15:49:59;26.00;99.90
6379;DHT22;3222;48.858;10.128;2023-09-12T15:52:24;26.00;99.90
6379;DHT22;3222;48.858;10.128;2023-09-12T15:54:50;25.90;99.90
6379;DHT22;3222;48.858;10.128;2023-09-12T15:57:17;25.90;99.90